MWI043 HTDA-FWCL
Flight info
| Callsign | MWI043 |
|---|---|
| Flight time | 1h 28m |
| Altitude | 40000 |
| Route | TEVEL1D TEVEL DCT UVMAG DCT UVARU |
| Aircraft | B737/M-SABDE2E3FGHIRWXY/LB2 |
Departure
| Time | 2026-05-08 05:07 |
|---|---|
| Airport | Julius Nyerere International Airport (HTDA) |
Arrival
| Time | 2026-05-08 06:36 |
|---|---|
| Airport | Chileka International Airport (FWCL) |
| Time | Latitude | Longitude | Altitude | Speed | Heading |
|---|---|---|---|---|---|
| 2026-05-08 04:41 | -6.86423 | 39.21186 | 176 ft | 0 kts | 315° |
| 2026-05-08 04:59 | -6.86429 | 39.21192 | 176 ft | 2 kts | 314° |
| 2026-05-08 04:59 | -6.86441 | 39.21204 | 176 ft | 2 kts | 315° |
| 2026-05-08 04:59 | -6.86453 | 39.21216 | 176 ft | 2 kts | 316° |
| 2026-05-08 05:00 | -6.86465 | 39.21228 | 176 ft | 2 kts | 317° |
| 2026-05-08 05:00 | -6.86478 | 39.21238 | 176 ft | 2 kts | 327° |
| 2026-05-08 05:00 | -6.86492 | 39.21240 | 176 ft | 2 kts | 47° |
| 2026-05-08 05:00 | -6.86504 | 39.21228 | 176 ft | 2 kts | 45° |
| 2026-05-08 05:01 | -6.86507 | 39.21224 | 176 ft | 0 kts | 44° |
| 2026-05-08 05:02 | -6.86496 | 39.21237 | 176 ft | 6 kts | 44° |
| 2026-05-08 05:03 | -6.86461 | 39.21268 | 175 ft | 14 kts | 40° |
| 2026-05-08 05:03 | -6.86385 | 39.21345 | 175 ft | 15 kts | 53° |
| 2026-05-08 05:03 | -6.86312 | 39.21419 | 175 ft | 14 kts | 43° |
| 2026-05-08 05:03 | -6.86247 | 39.21488 | 174 ft | 13 kts | 43° |
| 2026-05-08 05:04 | -6.86229 | 39.21563 | 174 ft | 11 kts | 128° |
| 2026-05-08 05:04 | -6.86290 | 39.21574 | 174 ft | 8 kts | 171° |
| 2026-05-08 05:04 | -6.86318 | 39.21597 | 173 ft | 3 kts | 97° |
| 2026-05-08 05:04 | -6.86318 | 39.21598 | 173 ft | 0 kts | 97° |
| 2026-05-08 05:06 | -6.86318 | 39.21599 | 173 ft | 1 kts | 97° |
| 2026-05-08 05:06 | -6.86330 | 39.21636 | 173 ft | 0 kts | 111° |
| 2026-05-08 05:06 | -6.86334 | 39.21646 | 172 ft | 2 kts | 116° |
| 2026-05-08 05:06 | -6.86397 | 39.21671 | 172 ft | 16 kts | 204° |
| 2026-05-08 05:07 | -6.86561 | 39.21517 | 174 ft | 69 kts | 225° |
| 2026-05-08 05:07 | -6.87093 | 39.20982 | 194 ft | 141 kts | 225° |
| 2026-05-08 05:07 | -6.87836 | 39.20257 | 837 ft | 150 kts | 224° |
| 2026-05-08 05:07 | -6.88594 | 39.19505 | 1643 ft | 155 kts | 220° |
| 2026-05-08 05:08 | -6.89400 | 39.18703 | 2327 ft | 173 kts | 219° |
| 2026-05-08 05:08 | -6.90330 | 39.17784 | 2866 ft | 204 kts | 220° |
| 2026-05-08 05:08 | -6.91272 | 39.16839 | 3390 ft | 221 kts | 220° |
| 2026-05-08 05:08 | -6.92424 | 39.15699 | 3948 ft | 245 kts | 220° |
| 2026-05-08 05:09 | -6.93729 | 39.14403 | 4404 ft | 275 kts | 223° |
| 2026-05-08 05:09 | -6.95063 | 39.13066 | 5744 ft | 266 kts | 222° |
| 2026-05-08 05:09 | -6.96381 | 39.11737 | 6821 ft | 271 kts | 223° |
| 2026-05-08 05:09 | -6.97727 | 39.10370 | 7816 ft | 277 kts | 223° |
| 2026-05-08 05:10 | -6.99102 | 39.08992 | 8814 ft | 282 kts | 223° |
| 2026-05-08 05:10 | -7.02336 | 39.06734 | 10576 ft | 298 kts | 205° |
| 2026-05-08 05:10 | -7.04321 | 39.05774 | 10834 ft | 327 kts | 204° |
| 2026-05-08 05:11 | -7.06402 | 39.04795 | 11459 ft | 339 kts | 204° |
| 2026-05-08 05:11 | -7.08562 | 39.03775 | 12314 ft | 344 kts | 204° |
| 2026-05-08 05:11 | -7.10743 | 39.02738 | 13230 ft | 348 kts | 204° |
| 2026-05-08 05:11 | -7.12947 | 39.01683 | 14063 ft | 354 kts | 204° |
| 2026-05-08 05:12 | -7.15185 | 39.00603 | 14784 ft | 360 kts | 204° |
| 2026-05-08 05:12 | -7.17461 | 38.99500 | 15503 ft | 366 kts | 204° |
| 2026-05-08 05:12 | -7.18994 | 38.98756 | 15988 ft | 370 kts | 204° |
| 2026-05-08 05:12 | -7.21269 | 38.97649 | 16718 ft | 375 kts | 204° |
| 2026-05-08 05:13 | -7.23645 | 38.96491 | 17454 ft | 381 kts | 203° |
| 2026-05-08 05:13 | -7.26050 | 38.95318 | 18168 ft | 387 kts | 203° |
| 2026-05-08 05:13 | -7.28481 | 38.94131 | 18800 ft | 392 kts | 204° |
| 2026-05-08 05:13 | -7.30929 | 38.92929 | 19459 ft | 395 kts | 204° |
| 2026-05-08 05:14 | -7.33418 | 38.91705 | 20136 ft | 399 kts | 204° |
| 2026-05-08 05:14 | -7.35926 | 38.90472 | 20772 ft | 403 kts | 204° |
| 2026-05-08 05:14 | -7.38450 | 38.89234 | 21368 ft | 407 kts | 204° |
| 2026-05-08 05:14 | -7.41018 | 38.87976 | 21965 ft | 411 kts | 204° |
| 2026-05-08 05:15 | -7.43605 | 38.86710 | 22547 ft | 415 kts | 205° |
| 2026-05-08 05:15 | -7.46182 | 38.85449 | 23110 ft | 419 kts | 205° |
| 2026-05-08 05:15 | -7.48852 | 38.84143 | 23652 ft | 422 kts | 205° |
| 2026-05-08 05:15 | -7.51466 | 38.82865 | 24087 ft | 426 kts | 205° |
| 2026-05-08 05:16 | -7.54143 | 38.81555 | 24552 ft | 428 kts | 205° |
| 2026-05-08 05:16 | -7.56828 | 38.80242 | 25001 ft | 431 kts | 205° |
| 2026-05-08 05:16 | -7.59540 | 38.78915 | 25442 ft | 433 kts | 205° |
| 2026-05-08 05:16 | -7.62255 | 38.77586 | 25878 ft | 436 kts | 205° |
| 2026-05-08 05:17 | -7.65002 | 38.76242 | 26302 ft | 439 kts | 205° |
| 2026-05-08 05:17 | -7.67759 | 38.74892 | 26719 ft | 442 kts | 205° |
| 2026-05-08 05:17 | -7.70523 | 38.73539 | 27118 ft | 444 kts | 205° |
| 2026-05-08 05:17 | -7.73292 | 38.72183 | 27509 ft | 447 kts | 205° |
| 2026-05-08 05:18 | -7.76086 | 38.70815 | 27904 ft | 449 kts | 205° |
| 2026-05-08 05:18 | -7.78908 | 38.69433 | 28276 ft | 452 kts | 205° |
| 2026-05-08 05:18 | -7.81754 | 38.68039 | 28655 ft | 454 kts | 205° |
| 2026-05-08 05:18 | -7.84606 | 38.66642 | 29016 ft | 457 kts | 205° |
| 2026-05-08 05:19 | -7.87472 | 38.65237 | 29359 ft | 459 kts | 205° |
| 2026-05-08 05:19 | -7.90345 | 38.63829 | 29710 ft | 462 kts | 205° |
| 2026-05-08 05:19 | -7.93249 | 38.62406 | 30044 ft | 464 kts | 205° |
| 2026-05-08 05:19 | -7.96156 | 38.60981 | 30314 ft | 466 kts | 205° |
| 2026-05-08 05:20 | -7.99086 | 38.59544 | 30606 ft | 468 kts | 205° |
| 2026-05-08 05:20 | -8.02030 | 38.58101 | 30890 ft | 470 kts | 205° |
| 2026-05-08 05:20 | -8.04939 | 38.56673 | 31177 ft | 471 kts | 205° |
| 2026-05-08 05:20 | -8.07897 | 38.55223 | 31451 ft | 473 kts | 205° |
| 2026-05-08 05:21 | -8.10868 | 38.53765 | 31727 ft | 474 kts | 205° |
| 2026-05-08 05:21 | -8.13840 | 38.52306 | 32013 ft | 475 kts | 205° |
| 2026-05-08 05:21 | -8.16813 | 38.50847 | 32418 ft | 473 kts | 205° |
| 2026-05-08 05:21 | -8.19768 | 38.49397 | 32910 ft | 470 kts | 205° |
| 2026-05-08 05:22 | -8.22697 | 38.47958 | 33397 ft | 467 kts | 206° |
| 2026-05-08 05:22 | -8.25612 | 38.46527 | 33856 ft | 465 kts | 206° |
| 2026-05-08 05:22 | -8.28506 | 38.45106 | 34267 ft | 464 kts | 206° |
| 2026-05-08 05:22 | -8.31381 | 38.43694 | 34621 ft | 464 kts | 206° |
| 2026-05-08 05:23 | -8.34277 | 38.42271 | 34969 ft | 463 kts | 205° |
| 2026-05-08 05:23 | -8.37170 | 38.40849 | 35319 ft | 463 kts | 205° |
| 2026-05-08 05:23 | -8.40071 | 38.39424 | 35693 ft | 461 kts | 205° |
| 2026-05-08 05:23 | -8.42957 | 38.38006 | 36027 ft | 461 kts | 205° |
| 2026-05-08 05:24 | -8.45846 | 38.36585 | 36336 ft | 461 kts | 205° |
| 2026-05-08 05:24 | -8.47770 | 38.35640 | 36556 ft | 461 kts | 205° |
| 2026-05-08 05:24 | -8.50652 | 38.34222 | 36892 ft | 460 kts | 205° |
| 2026-05-08 05:24 | -8.53526 | 38.32809 | 37250 ft | 459 kts | 205° |
| 2026-05-08 05:25 | -8.57324 | 38.30940 | 37678 ft | 458 kts | 206° |
| 2026-05-08 05:25 | -8.59263 | 38.29987 | 37874 ft | 458 kts | 206° |
| 2026-05-08 05:25 | -8.62088 | 38.28596 | 38166 ft | 458 kts | 206° |
| 2026-05-08 05:25 | -8.64944 | 38.27191 | 38461 ft | 457 kts | 206° |
| 2026-05-08 05:26 | -8.67823 | 38.25774 | 38752 ft | 457 kts | 206° |
| 2026-05-08 05:26 | -8.70673 | 38.24371 | 39020 ft | 456 kts | 206° |
| 2026-05-08 05:26 | -8.73530 | 38.22964 | 39288 ft | 455 kts | 206° |
| 2026-05-08 05:26 | -8.76367 | 38.21567 | 39545 ft | 454 kts | 206° |
| 2026-05-08 05:27 | -8.79203 | 38.20170 | 39798 ft | 453 kts | 206° |
| 2026-05-08 05:27 | -8.82038 | 38.18773 | 40036 ft | 452 kts | 206° |
| 2026-05-08 05:27 | -8.84889 | 38.17368 | 40033 ft | 457 kts | 206° |
| 2026-05-08 05:28 | -8.90616 | 38.14546 | 40051 ft | 462 kts | 206° |
| 2026-05-08 05:28 | -8.96384 | 38.11702 | 40054 ft | 460 kts | 206° |
| 2026-05-08 05:29 | -9.02167 | 38.08850 | 40058 ft | 459 kts | 206° |
| 2026-05-08 05:29 | -9.07861 | 38.06040 | 40057 ft | 458 kts | 206° |
| 2026-05-08 05:30 | -9.13596 | 38.03210 | 40058 ft | 457 kts | 206° |
| 2026-05-08 05:30 | -9.19317 | 38.00385 | 40063 ft | 457 kts | 206° |
| 2026-05-08 05:31 | -9.25037 | 37.97559 | 40059 ft | 457 kts | 206° |
| 2026-05-08 05:31 | -9.30720 | 37.94752 | 40059 ft | 456 kts | 206° |
| 2026-05-08 05:32 | -9.36431 | 37.91929 | 40059 ft | 456 kts | 206° |
| 2026-05-08 05:32 | -9.42148 | 37.89102 | 40064 ft | 457 kts | 206° |
| 2026-05-08 05:33 | -9.47855 | 37.86279 | 40060 ft | 457 kts | 206° |
| 2026-05-08 05:33 | -9.53571 | 37.83451 | 40063 ft | 457 kts | 206° |
| 2026-05-08 05:34 | -9.59271 | 37.80629 | 40066 ft | 458 kts | 206° |
| 2026-05-08 05:34 | -9.65005 | 37.77790 | 40068 ft | 459 kts | 206° |
| 2026-05-08 05:35 | -9.70755 | 37.74941 | 40072 ft | 459 kts | 206° |
| 2026-05-08 05:35 | -9.76512 | 37.72088 | 40070 ft | 459 kts | 206° |
| 2026-05-08 05:36 | -9.82214 | 37.69261 | 40072 ft | 459 kts | 206° |
| 2026-05-08 05:36 | -9.87975 | 37.66404 | 40070 ft | 459 kts | 206° |
| 2026-05-08 05:37 | -9.93732 | 37.63547 | 40072 ft | 459 kts | 206° |
| 2026-05-08 05:37 | -9.99458 | 37.60705 | 40071 ft | 458 kts | 206° |
| 2026-05-08 05:38 | -10.05189 | 37.57859 | 40074 ft | 458 kts | 206° |
| 2026-05-08 05:38 | -10.10884 | 37.55031 | 40075 ft | 458 kts | 206° |
| 2026-05-08 05:39 | -10.16609 | 37.52186 | 40077 ft | 458 kts | 206° |
| 2026-05-08 05:39 | -10.22332 | 37.49340 | 40074 ft | 458 kts | 206° |
| 2026-05-08 05:40 | -10.28060 | 37.46492 | 40070 ft | 459 kts | 206° |
| 2026-05-08 05:40 | -10.33810 | 37.43631 | 40075 ft | 459 kts | 206° |
| 2026-05-08 05:41 | -10.39563 | 37.40768 | 40076 ft | 460 kts | 206° |
| 2026-05-08 05:41 | -10.45278 | 37.37921 | 40070 ft | 460 kts | 206° |
| 2026-05-08 05:42 | -10.51028 | 37.35057 | 40072 ft | 460 kts | 206° |
| 2026-05-08 05:42 | -10.56793 | 37.32184 | 40068 ft | 460 kts | 206° |
| 2026-05-08 05:43 | -10.62517 | 37.29330 | 40069 ft | 460 kts | 206° |
| 2026-05-08 05:43 | -10.68269 | 37.26461 | 40069 ft | 460 kts | 206° |
| 2026-05-08 05:44 | -10.74020 | 37.23591 | 40065 ft | 460 kts | 206° |
| 2026-05-08 05:44 | -10.79747 | 37.20732 | 40073 ft | 460 kts | 206° |
| 2026-05-08 05:45 | -10.85506 | 37.17856 | 40072 ft | 460 kts | 206° |
| 2026-05-08 05:45 | -10.91253 | 37.14985 | 40069 ft | 459 kts | 206° |
| 2026-05-08 05:46 | -10.96959 | 37.12132 | 40071 ft | 459 kts | 206° |
| 2026-05-08 05:46 | -11.02688 | 37.09268 | 40067 ft | 458 kts | 206° |
| 2026-05-08 05:47 | -11.06521 | 37.07350 | 40070 ft | 458 kts | 206° |
| 2026-05-08 05:47 | -11.08975 | 37.06122 | 40071 ft | 458 kts | 206° |
| 2026-05-08 05:48 | -11.14557 | 37.03328 | 40068 ft | 458 kts | 206° |
| 2026-05-08 05:49 | -11.20272 | 37.00467 | 40073 ft | 457 kts | 206° |
| 2026-05-08 05:49 | -11.26000 | 36.97597 | 40069 ft | 457 kts | 207° |
| 2026-05-08 05:50 | -11.31662 | 36.94759 | 40064 ft | 456 kts | 207° |
| 2026-05-08 05:50 | -11.37326 | 36.91831 | 40058 ft | 456 kts | 208° |
| 2026-05-08 05:51 | -11.43013 | 36.88968 | 40065 ft | 456 kts | 206° |
| 2026-05-08 05:51 | -11.48734 | 36.86157 | 40066 ft | 456 kts | 206° |
| 2026-05-08 05:52 | -11.54409 | 36.83340 | 40065 ft | 456 kts | 207° |
| 2026-05-08 05:52 | -11.60115 | 36.80483 | 40064 ft | 456 kts | 207° |
| 2026-05-08 05:53 | -11.65805 | 36.77622 | 40066 ft | 456 kts | 207° |
| 2026-05-08 05:53 | -11.71463 | 36.74776 | 40065 ft | 456 kts | 207° |
| 2026-05-08 05:54 | -11.77168 | 36.71906 | 40068 ft | 456 kts | 207° |
| 2026-05-08 05:54 | -11.82850 | 36.69046 | 40067 ft | 455 kts | 207° |
| 2026-05-08 05:55 | -11.88532 | 36.66185 | 40069 ft | 455 kts | 207° |
| 2026-05-08 05:55 | -11.94172 | 36.63344 | 40071 ft | 454 kts | 207° |
| 2026-05-08 05:56 | -11.99829 | 36.60494 | 40072 ft | 453 kts | 207° |
| 2026-05-08 05:56 | -12.05476 | 36.57647 | 40071 ft | 453 kts | 207° |
| 2026-05-08 05:57 | -12.11132 | 36.54793 | 40071 ft | 452 kts | 207° |
| 2026-05-08 05:57 | -12.16768 | 36.51949 | 40076 ft | 451 kts | 207° |
| 2026-05-08 05:58 | -12.22358 | 36.49126 | 40074 ft | 451 kts | 207° |
| 2026-05-08 05:58 | -12.27974 | 36.46290 | 40075 ft | 450 kts | 207° |
| 2026-05-08 05:59 | -12.33596 | 36.43448 | 40076 ft | 450 kts | 207° |
| 2026-05-08 05:59 | -12.39224 | 36.40603 | 40080 ft | 450 kts | 207° |
| 2026-05-08 06:00 | -12.44795 | 36.37784 | 40081 ft | 449 kts | 207° |
| 2026-05-08 06:00 | -12.50409 | 36.34943 | 40084 ft | 449 kts | 207° |
| 2026-05-08 06:01 | -12.56025 | 36.32099 | 40086 ft | 449 kts | 207° |
| 2026-05-08 06:01 | -12.61629 | 36.29260 | 40091 ft | 450 kts | 207° |
| 2026-05-08 06:02 | -12.67207 | 36.26433 | 40086 ft | 450 kts | 207° |
| 2026-05-08 06:02 | -12.72827 | 36.23583 | 40089 ft | 450 kts | 207° |
| 2026-05-08 06:03 | -12.78432 | 36.20739 | 40094 ft | 450 kts | 207° |
| 2026-05-08 06:03 | -12.84056 | 36.17884 | 40097 ft | 450 kts | 207° |
| 2026-05-08 06:04 | -12.89677 | 36.15029 | 40092 ft | 451 kts | 207° |
| 2026-05-08 06:04 | -12.95306 | 36.12169 | 40089 ft | 451 kts | 207° |
| 2026-05-08 06:05 | -13.00887 | 36.09332 | 40089 ft | 451 kts | 207° |
| 2026-05-08 06:05 | -13.06519 | 36.06467 | 40091 ft | 451 kts | 207° |
| 2026-05-08 06:06 | -13.12146 | 36.03603 | 40091 ft | 451 kts | 207° |
| 2026-05-08 06:06 | -13.17772 | 36.00739 | 40087 ft | 451 kts | 208° |
| 2026-05-08 06:07 | -13.23368 | 35.97888 | 40089 ft | 451 kts | 208° |
| 2026-05-08 06:07 | -13.28994 | 35.95020 | 40089 ft | 451 kts | 208° |
| 2026-05-08 06:08 | -13.34627 | 35.92148 | 40087 ft | 451 kts | 208° |
| 2026-05-08 06:08 | -13.40249 | 35.89279 | 40085 ft | 451 kts | 208° |
| 2026-05-08 06:09 | -13.45881 | 35.86404 | 40088 ft | 452 kts | 208° |
| 2026-05-08 06:09 | -13.51518 | 35.83525 | 40088 ft | 452 kts | 208° |
| 2026-05-08 06:10 | -13.57147 | 35.80648 | 40084 ft | 452 kts | 208° |
| 2026-05-08 06:10 | -13.62742 | 35.77788 | 40084 ft | 451 kts | 208° |
| 2026-05-08 06:11 | -13.68360 | 35.74914 | 40086 ft | 451 kts | 208° |
| 2026-05-08 06:11 | -13.73982 | 35.72036 | 40085 ft | 451 kts | 208° |
| 2026-05-08 06:12 | -13.79603 | 35.69158 | 40091 ft | 450 kts | 208° |
| 2026-05-08 06:12 | -13.84259 | 35.66772 | 40089 ft | 450 kts | 208° |
| 2026-05-08 06:13 | -13.89863 | 35.63899 | 40085 ft | 450 kts | 208° |
| 2026-05-08 06:13 | -13.95427 | 35.61045 | 40087 ft | 449 kts | 208° |
| 2026-05-08 06:14 | -13.99694 | 35.58855 | 40082 ft | 449 kts | 209° |
| 2026-05-08 06:14 | -14.05297 | 35.55979 | 40080 ft | 449 kts | 209° |
| 2026-05-08 06:15 | -14.10889 | 35.53107 | 40072 ft | 446 kts | 209° |
| 2026-05-08 06:15 | -14.16372 | 35.50290 | 40072 ft | 440 kts | 209° |
| 2026-05-08 06:16 | -14.21831 | 35.47482 | 39788 ft | 441 kts | 209° |
| 2026-05-08 06:16 | -14.24589 | 35.46062 | 39245 ft | 440 kts | 209° |
| 2026-05-08 06:16 | -14.27332 | 35.44650 | 38594 ft | 440 kts | 209° |
| 2026-05-08 06:16 | -14.30075 | 35.43238 | 37840 ft | 441 kts | 209° |
| 2026-05-08 06:17 | -14.35541 | 35.40423 | 36406 ft | 442 kts | 208° |
| 2026-05-08 06:17 | -14.38300 | 35.39001 | 35617 ft | 445 kts | 208° |
| 2026-05-08 06:17 | -14.41092 | 35.37562 | 34761 ft | 450 kts | 208° |
| 2026-05-08 06:18 | -14.43910 | 35.36108 | 33897 ft | 455 kts | 208° |
| 2026-05-08 06:18 | -14.46733 | 35.34652 | 33190 ft | 453 kts | 208° |
| 2026-05-08 06:18 | -14.49537 | 35.33207 | 32551 ft | 449 kts | 208° |
| 2026-05-08 06:18 | -14.52332 | 35.31767 | 31920 ft | 445 kts | 208° |
| 2026-05-08 06:19 | -14.55081 | 35.30349 | 31312 ft | 441 kts | 208° |
| 2026-05-08 06:19 | -14.57828 | 35.28932 | 30690 ft | 437 kts | 208° |
| 2026-05-08 06:19 | -14.60538 | 35.27534 | 30081 ft | 433 kts | 208° |
| 2026-05-08 06:19 | -14.63190 | 35.26164 | 29390 ft | 429 kts | 208° |
| 2026-05-08 06:20 | -14.65881 | 35.24774 | 28716 ft | 424 kts | 208° |
| 2026-05-08 06:20 | -14.68468 | 35.23437 | 28084 ft | 418 kts | 208° |
| 2026-05-08 06:20 | -14.71091 | 35.22082 | 27456 ft | 414 kts | 208° |
| 2026-05-08 06:20 | -14.73615 | 35.20776 | 26852 ft | 410 kts | 208° |
| 2026-05-08 06:21 | -14.76162 | 35.19459 | 26250 ft | 406 kts | 208° |
| 2026-05-08 06:21 | -14.78675 | 35.18159 | 25618 ft | 404 kts | 208° |
| 2026-05-08 06:21 | -14.81184 | 35.16860 | 24995 ft | 402 kts | 208° |
| 2026-05-08 06:21 | -14.83680 | 35.15568 | 24378 ft | 400 kts | 208° |
| 2026-05-08 06:22 | -14.86165 | 35.14281 | 23762 ft | 399 kts | 208° |
| 2026-05-08 06:22 | -14.88643 | 35.12997 | 23045 ft | 398 kts | 208° |
| 2026-05-08 06:22 | -14.91090 | 35.11729 | 22399 ft | 395 kts | 208° |
| 2026-05-08 06:22 | -14.93538 | 35.10461 | 21781 ft | 391 kts | 208° |
| 2026-05-08 06:23 | -14.95965 | 35.09203 | 21169 ft | 388 kts | 208° |
| 2026-05-08 06:23 | -14.98361 | 35.07962 | 20565 ft | 385 kts | 208° |
| 2026-05-08 06:23 | -15.00753 | 35.06721 | 19942 ft | 382 kts | 208° |
| 2026-05-08 06:23 | -15.03133 | 35.05486 | 19335 ft | 380 kts | 207° |
| 2026-05-08 06:24 | -15.05491 | 35.04264 | 18717 ft | 378 kts | 207° |
| 2026-05-08 06:24 | -15.07835 | 35.03047 | 18072 ft | 377 kts | 207° |
| 2026-05-08 06:24 | -15.10171 | 35.01834 | 17415 ft | 373 kts | 207° |
| 2026-05-08 06:24 | -15.12484 | 35.00633 | 16810 ft | 369 kts | 207° |
| 2026-05-08 06:25 | -15.14745 | 34.99460 | 16210 ft | 366 kts | 207° |
| 2026-05-08 06:25 | -15.17008 | 34.98284 | 15604 ft | 363 kts | 207° |
| 2026-05-08 06:25 | -15.19279 | 34.97104 | 14985 ft | 360 kts | 207° |
| 2026-05-08 06:25 | -15.21488 | 34.95956 | 14388 ft | 358 kts | 207° |
| 2026-05-08 06:26 | -15.23712 | 34.94800 | 13774 ft | 356 kts | 207° |
| 2026-05-08 06:26 | -15.25928 | 34.93648 | 13118 ft | 354 kts | 207° |
| 2026-05-08 06:26 | -15.28117 | 34.92509 | 12516 ft | 349 kts | 207° |
| 2026-05-08 06:26 | -15.30275 | 34.91387 | 11971 ft | 345 kts | 207° |
| 2026-05-08 06:27 | -15.32415 | 34.90273 | 11387 ft | 341 kts | 207° |
| 2026-05-08 06:27 | -15.34503 | 34.89187 | 10823 ft | 337 kts | 206° |
| 2026-05-08 06:27 | -15.36581 | 34.88105 | 10506 ft | 326 kts | 206° |
| 2026-05-08 06:27 | -15.38565 | 34.87072 | 10290 ft | 312 kts | 206° |
| 2026-05-08 06:28 | -15.40462 | 34.86084 | 10151 ft | 297 kts | 206° |
| 2026-05-08 06:28 | -15.42265 | 34.85144 | 10060 ft | 282 kts | 206° |
| 2026-05-08 06:28 | -15.44023 | 34.84228 | 9428 ft | 287 kts | 206° |
| 2026-05-08 06:28 | -15.45815 | 34.83295 | 8941 ft | 288 kts | 206° |
| 2026-05-08 06:29 | -15.47601 | 34.82364 | 8512 ft | 287 kts | 206° |
| 2026-05-08 06:29 | -15.49380 | 34.81436 | 8090 ft | 285 kts | 206° |
| 2026-05-08 06:29 | -15.51134 | 34.80522 | 7677 ft | 284 kts | 206° |
| 2026-05-08 06:29 | -15.52906 | 34.79598 | 7271 ft | 284 kts | 206° |
| 2026-05-08 06:30 | -15.54668 | 34.78679 | 6881 ft | 283 kts | 206° |
| 2026-05-08 06:30 | -15.56503 | 34.77987 | 6555 ft | 279 kts | 188° |
| 2026-05-08 06:30 | -15.58407 | 34.77758 | 6280 ft | 273 kts | 184° |
| 2026-05-08 06:30 | -15.60274 | 34.77565 | 6014 ft | 267 kts | 184° |
| 2026-05-08 06:31 | -15.62107 | 34.77373 | 5786 ft | 261 kts | 182° |
| 2026-05-08 06:31 | -15.63857 | 34.77660 | 5541 ft | 252 kts | 153° |
| 2026-05-08 06:31 | -15.65207 | 34.78736 | 5346 ft | 240 kts | 126° |
| 2026-05-08 06:31 | -15.65971 | 34.80205 | 5073 ft | 225 kts | 104° |
| 2026-05-08 06:32 | -15.66255 | 34.81765 | 4810 ft | 215 kts | 93° |
| 2026-05-08 06:32 | -15.66397 | 34.83272 | 4586 ft | 205 kts | 91° |
| 2026-05-08 06:32 | -15.66529 | 34.84704 | 4424 ft | 194 kts | 92° |
| 2026-05-08 06:32 | -15.66670 | 34.86063 | 4328 ft | 182 kts | 92° |
| 2026-05-08 06:33 | -15.66809 | 34.87374 | 4130 ft | 182 kts | 93° |
| 2026-05-08 06:33 | -15.66947 | 34.88677 | 3880 ft | 181 kts | 94° |
| 2026-05-08 06:33 | -15.67081 | 34.89926 | 3689 ft | 172 kts | 94° |
| 2026-05-08 06:33 | -15.67205 | 34.91093 | 3426 ft | 152 kts | 94° |
| 2026-05-08 06:34 | -15.67313 | 34.92108 | 3230 ft | 135 kts | 93° |
| 2026-05-08 06:34 | -15.67412 | 34.93078 | 2972 ft | 137 kts | 94° |
| 2026-05-08 06:34 | -15.67540 | 34.94024 | 2848 ft | 133 kts | 95° |
| 2026-05-08 06:34 | -15.67635 | 34.94968 | 2664 ft | 130 kts | 95° |
| 2026-05-08 06:35 | -15.67737 | 34.95889 | 2499 ft | 124 kts | 96° |
| 2026-05-08 06:35 | -15.67800 | 34.96545 | 2468 ft | 97 kts | 94° |
| 2026-05-08 06:35 | -15.67864 | 34.97047 | 2473 ft | 71 kts | 96° |
| 2026-05-08 06:36 | -15.67914 | 34.97417 | 2467 ft | 35 kts | 117° |
| 2026-05-08 06:36 | -15.68056 | 34.97536 | 2465 ft | 8 kts | 151° |
| 2026-05-08 06:36 | -15.68081 | 34.97514 | 2465 ft | 7 kts | 258° |
| 2026-05-08 06:36 | -15.68087 | 34.97463 | 2466 ft | 7 kts | 281° |
| 2026-05-08 06:37 | -15.68077 | 34.97414 | 2470 ft | 7 kts | 281° |
| 2026-05-08 06:37 | -15.68072 | 34.97364 | 2467 ft | 7 kts | 275° |
| 2026-05-08 06:37 | -15.68072 | 34.97322 | 2467 ft | 3 kts | 261° |
| 2026-05-08 06:37 | -15.68103 | 34.97269 | 2469 ft | 11 kts | 255° |
| 2026-05-08 06:38 | -15.68100 | 34.97188 | 2467 ft | 5 kts | 276° |
| 2026-05-08 06:38 | -15.68099 | 34.97187 | 2467 ft | 0 kts | 276° |